Rio Grande City, Texas
Current Conditions -  °F | °C
As of 9:53 PM on Thursday 20 Nov 2014 (Local Time) from KMFE Reporting Station
Overcast Overcast  
Wind Chill: 69°   Ceiling: 800
Heat Index: 69°   Visibility: 10mi
Dew Point: 66°   Wind: 12mph
Humidity: 90%   Direction: 140°SE
Pressure: 30.04"   Gusts: NA
Location:  26.38°N, 98.81°W
Report Text: KMFE 210353Z 14010KT 10SM BKN008 OVC020 21/19 A3004 RMK AO2 SLP172 T02060189
Loading
Personal Weather Stations






























Interactive Weather Map New forecast layout! Learn more

10-Day Weather Forecast

Advertisements
Track Severe Weather on mobile